Time;durP1;ratioP1;P1;durP2;ratioP2;P2;SDS_P1;SDS_P2;PMS_P1;PMS_P2;Temp;Humidity;BMP_temperature;BMP_pressure;BME280_temperature;BME280_humidity;BME280_pressure;Samples;Min_cycle;Max_cycle;Signal;HPM_P1;HPM_P2
2023/01/24 00:02:46;;;;;;;;;;;;;;;10.60;57.66;101760.41;5402357;32;34583;-85
2023/01/24 00:05:48;;;;;;;;;;;;;;;10.36;57.92;101760.81;5392660;32;43744;-87
2023/01/24 00:08:50;;;;;;;;;;;;;;;10.62;57.59;101763.88;5393886;32;35513;-85
2023/01/24 00:11:52;;;;;;;;;;;;;;;10.20;58.49;101763.69;5401544;32;34732;-81
2023/01/24 00:14:55;;;;;;;;;;;;;;;10.12;59.19;101768.19;5390226;32;34275;-82
2023/01/24 00:17:57;;;;;;;;;;;;;;;10.60;58.02;101768.31;5405913;32;36201;-83
2023/01/24 00:21:03;;;;;;;;;;;;;;;10.16;58.55;101774.25;5397733;32;35100;-83
2023/01/24 00:24:05;;;;;;;;;;;;;;;9.44;60.77;101772.63;5398609;32;34429;-85
2023/01/24 00:27:07;;;;;;;;;;;;;;;9.50;60.53;101775.19;5399943;32;34821;-82
2023/01/24 00:30:11;;;;;;;;;;;;;;;9.80;59.47;101767.81;5397165;32;35545;-81
2023/01/24 00:33:13;;;;;;;;;;;;;;;10.39;56.86;101761.66;5415520;32;34241;-84
2023/01/24 00:36:15;;;;;;;;;;;;;;;10.26;56.82;101775.87;5402701;32;35693;-85
2023/01/24 00:39:17;;;;;;;;;;;;;;;10.54;55.87;101778.94;5389901;32;44719;-85
2023/01/24 00:42:20;;;;;;;;;;;;;;;10.41;55.79;101772.13;5369982;32;35303;-82
2023/01/24 00:45:22;;;;;;;;;;;;;;;10.57;55.15;101778.91;5397088;32;36100;-84
2023/01/24 00:48:24;;;;;;;;;;;;;;;10.63;54.20;101778.78;5402463;32;36244;-82
2023/01/24 00:51:27;;;;;;;;;;;;;;;10.57;54.46;101784.16;5381433;32;35176;-82
2023/01/24 00:54:29;;;;;;;;;;;;;;;10.46;54.55;101784.31;5401325;32;37298;-81
2023/01/24 00:57:31;;;;;;;;;;;;;;;10.22;54.85;101793.41;5377248;32;35699;-85
2023/01/24 01:00:34;;;;;;;;;;;;;;;10.32;54.84;101794.19;5407452;32;35618;-85
2023/01/24 01:03:36;;;;;;;;;;;;;;;9.72;56.62;101792.41;5395162;32;34757;-82
2023/01/24 01:06:38;;;;;;;;;;;;;;;9.97;55.92;101802.53;5396022;32;34942;-85
2023/01/24 01:09:40;;;;;;;;;;;;;;;10.27;55.11;101802.13;5410557;32;37496;-81
2023/01/24 01:12:42;;;;;;;;;;;;;;;10.20;55.50;101800.47;5396814;32;34351;-81
2023/01/24 01:15:44;;;;;;;;;;;;;;;10.26;55.29;101810.91;5380037;32;34403;-82
2023/01/24 01:18:46;;;;;;;;;;;;;;;9.76;56.52;101811.59;5391947;32;35176;-81
2023/01/24 01:21:49;;;;;;;;;;;;;;;10.10;55.01;101819.87;5406568;32;44930;-84
2023/01/24 01:24:51;;;;;;;;;;;;;;;9.57;56.89;101825.84;5390928;32;35485;-81
2023/01/24 01:27:53;;;;;;;;;;;;;;;9.47;56.80;101817.22;5399769;32;35266;-85
2023/01/24 01:30:55;;;;;;;;;;;;;;;9.56;56.29;101822.34;5405966;32;35113;-85
2023/01/24 01:33:57;;;;;;;;;;;;;;;9.97;54.72;101813.06;5399666;32;36669;-81
2023/01/24 01:36:59;;;;;;;;;;;;;;;10.10;53.93;101814.62;5398957;32;37128;-82
2023/01/24 01:40:02;;;;;;;;;;;;;;;10.00;54.08;101823.53;5409281;32;35435;-82
2023/01/24 01:43:05;;;;;;;;;;;;;;;10.00;53.59;101824.41;5414223;32;35773;-85
2023/01/24 01:46:20;;;;;;;;;;;;;;;8.98;56.82;101835.22;5398201;32;36042;-81
2023/01/24 01:49:23;;;;;;;;;;;;;;;9.42;55.13;101834.75;5394071;32;45959;-82
2023/01/24 01:52:26;;;;;;;;;;;;;;;9.37;55.67;101826.06;5393909;32;34818;-82
2023/01/24 01:55:30;;;;;;;;;;;;;;;8.71;57.28;101837.22;5387999;32;34635;-81
2023/01/24 01:58:32;;;;;;;;;;;;;;;9.35;55.62;101831.34;5412022;32;34539;-82
2023/01/24 02:01:34;;;;;;;;;;;;;;;9.50;55.18;101839.03;5402802;32;34933;-86
2023/01/24 02:04:38;;;;;;;;;;;;;;;9.19;56.06;101837.63;5409926;32;35120;-85
2023/01/24 02:07:44;;;;;;;;;;;;;;;8.72;57.26;101838.06;5387118;32;35387;-85
2023/01/24 02:17:29;;;;;;;;;;;;;;;9.14;55.39;101840.28;5394581;32;34181;-85
2023/01/24 02:20:32;;;;;;;;;;;;;;;9.19;55.99;101838.50;5409232;32;34159;-82
2023/01/24 02:23:51;;;;;;;;;;;;;;;9.54;55.22;101844.25;5399285;32;35491;-85
2023/01/24 02:26:53;;;;;;;;;;;;;;;9.23;56.06;101848.09;5381026;32;47190;-85
2023/01/24 02:29:55;;;;;;;;;;;;;;;9.43;55.35;101844.38;5407200;32;34822;-82
2023/01/24 02:32:57;;;;;;;;;;;;;;;9.25;55.18;101848.06;5394959;32;35809;-82
2023/01/24 02:36:11;;;;;;;;;;;;;;;8.40;57.96;101854.91;5398049;32;34649;-86
2023/01/24 02:39:14;;;;;;;;;;;;;;;8.81;57.23;101845.84;5402658;32;36469;-82
2023/01/24 02:42:22;;;;;;;;;;;;;;;8.97;56.68;101842.22;5383863;32;43885;-86
2023/01/24 02:45:27;;;;;;;;;;;;;;;9.06;55.64;101842.12;5403084;32;34324;-82
2023/01/24 02:48:29;;;;;;;;;;;;;;;9.04;56.01;101846.53;5395896;32;34770;-81
2023/01/24 02:54:51;;;;;;;;;;;;;;;8.36;57.63;101853.19;5372579;32;44667;-82
2023/01/24 02:58:06;;;;;;;;;;;;;;;9.64;53.92;101846.75;5396928;32;35100;-82
2023/01/24 03:01:08;;;;;;;;;;;;;;;9.53;53.85;101847.75;5406281;32;35025;-86
2023/01/24 03:04:11;;;;;;;;;;;;;;;9.47;53.53;101852.19;5390014;32;36047;-85
2023/01/24 03:07:13;;;;;;;;;;;;;;;9.26;54.51;101859.41;5407180;32;35435;-82
2023/01/24 03:10:16;;;;;;;;;;;;;;;9.61;53.74;101862.53;5375175;32;34829;-84
2023/01/24 03:36:42;;;;;;;;;;;;;;;8.12;57.30;101868.16;5391905;32;34885;-81
2023/01/24 03:39:59;;;;;;;;;;;;;;;8.93;55.33;101874.59;5408822;32;34852;-86
2023/01/24 03:43:02;;;;;;;;;;;;;;;8.62;56.26;101877.44;5394567;32;36088;-85
2023/01/24 03:46:03;;;;;;;;;;;;;;;8.74;55.34;101875.62;5390346;32;34687;-82
2023/01/24 03:49:06;;;;;;;;;;;;;;;8.81;55.82;101874.69;5409668;32;35455;-82
2023/01/24 03:52:29;;;;;;;;;;;;;;;8.64;55.75;101870.47;5374115;32;35906;-84
2023/01/24 03:55:31;;;;;;;;;;;;;;;9.06;54.41;101873.59;5406075;32;34285;-84
2023/01/24 03:58:33;;;;;;;;;;;;;;;8.20;57.68;101877.72;5391397;32;34551;-86
2023/01/24 04:01:35;;;;;;;;;;;;;;;8.02;58.24;101874.31;5402944;32;34922;-82
2023/01/24 04:07:58;;;;;;;;;;;;;;;9.40;53.33;101868.91;5393830;32;36804;-82
2023/01/24 04:11:00;;;;;;;;;;;;;;;9.00;54.36;101868.41;5405047;32;34626;-85
2023/01/24 04:14:02;;;;;;;;;;;;;;;7.40;58.91;101882.38;5389970;32;34927;-84
2023/01/24 04:17:04;;;;;;;;;;;;;;;8.66;55.71;101875.69;5403833;32;35075;-83
2023/01/24 04:20:06;;;;;;;;;;;;;;;8.89;54.26;101878.13;5396803;32;34729;-85
2023/01/24 04:23:09;;;;;;;;;;;;;;;9.04;54.36;101882.38;5396635;32;34584;-82
2023/01/24 04:26:11;;;;;;;;;;;;;;;9.26;53.57;101873.41;5407572;32;33679;-85
2023/01/24 04:29:14;;;;;;;;;;;;;;;8.66;55.04;101873.94;5395290;32;34278;-81
2023/01/24 04:32:16;;;;;;;;;;;;;;;8.53;56.15;101877.53;5406174;32;35059;-85
2023/01/24 04:35:19;;;;;;;;;;;;;;;8.74;54.94;101876.50;5398057;32;45132;-84
2023/01/24 04:38:21;;;;;;;;;;;;;;;8.98;53.91;101878.03;5406739;32;35691;-85
2023/01/24 04:41:23;;;;;;;;;;;;;;;8.68;54.61;101880.03;5386366;32;35466;-86
2023/01/24 04:44:25;;;;;;;;;;;;;;;8.48;55.55;101881.06;5402469;32;34584;-82
2023/01/24 04:47:27;;;;;;;;;;;;;;;8.72;54.70;101874.78;5413581;32;35146;-87
2023/01/24 04:50:29;;;;;;;;;;;;;;;9.27;52.80;101872.50;5397137;32;36375;-83
2023/01/24 04:53:33;;;;;;;;;;;;;;;9.05;53.27;101869.25;5404121;32;35237;-85
2023/01/24 04:56:35;;;;;;;;;;;;;;;9.10;53.18;101877.94;5402562;32;34735;-82
2023/01/24 04:59:37;;;;;;;;;;;;;;;9.40;52.20;101881.13;5410532;32;35543;-85
2023/01/24 05:02:39;;;;;;;;;;;;;;;9.46;51.77;101883.69;5402249;32;35057;-82
2023/01/24 05:05:41;;;;;;;;;;;;;;;9.43;51.82;101887.22;5396944;32;34839;-86
2023/01/24 05:08:43;;;;;;;;;;;;;;;9.44;51.89;101890.72;5411312;32;34837;-81
2023/01/24 05:11:45;;;;;;;;;;;;;;;8.85;53.50;101894.78;5398051;32;35466;-84
2023/01/24 05:14:47;;;;;;;;;;;;;;;8.48;54.75;101883.69;5406353;32;45181;-82
2023/01/24 05:17:49;;;;;;;;;;;;;;;8.12;56.03;101898.72;5395722;32;34324;-82
2023/01/24 05:20:51;;;;;;;;;;;;;;;8.26;55.79;101901.25;5407436;32;35016;-85
2023/01/24 05:23:53;;;;;;;;;;;;;;;8.25;55.82;101897.75;5385941;32;34650;-82
2023/01/24 05:26:55;;;;;;;;;;;;;;;8.20;56.39;101906.53;5397126;32;35059;-81
2023/01/24 05:29:57;;;;;;;;;;;;;;;8.43;55.72;101902.03;5410605;32;35997;-81
2023/01/24 05:32:59;;;;;;;;;;;;;;;8.70;54.98;101900.12;5399524;32;34286;-84
2023/01/24 05:36:05;;;;;;;;;;;;;;;8.26;56.16;101909.09;5412025;32;36859;-84
2023/01/24 05:39:07;;;;;;;;;;;;;;;8.16;56.91;101903.03;5400939;32;35236;-82
2023/01/24 05:42:09;;;;;;;;;;;;;;;8.39;56.75;101905.56;5405744;32;34742;-84
2023/01/24 05:45:11;;;;;;;;;;;;;;;8.32;56.30;101896.84;5405352;32;33947;-82
2023/01/24 05:48:13;;;;;;;;;;;;;;;9.03;54.22;101894.63;5398983;32;34624;-83
2023/01/24 05:51:16;;;;;;;;;;;;;;;9.00;54.11;101902.50;5394679;32;35594;-85
2023/01/24 05:54:18;;;;;;;;;;;;;;;9.40;52.73;101897.78;5380720;32;44758;-81
2023/01/24 05:57:20;;;;;;;;;;;;;;;8.30;55.87;101905.56;5409506;32;34740;-85
2023/01/24 06:00:22;;;;;;;;;;;;;;;8.29;56.25;101911.69;5397596;32;34942;-83
2023/01/24 06:03:25;;;;;;;;;;;;;;;8.21;56.48;101911.75;5403217;32;34399;-85
2023/01/24 06:06:27;;;;;;;;;;;;;;;8.43;56.64;101899.41;5404098;32;34805;-81
2023/01/24 06:09:29;;;;;;;;;;;;;;;8.90;55.56;101914.84;5396476;32;34318;-85
2023/01/24 06:12:31;;;;;;;;;;;;;;;8.08;57.61;101921.41;5387872;32;34896;-81
2023/01/24 06:15:33;;;;;;;;;;;;;;;8.02;58.15;101924.06;5386577;32;34184;-84
2023/01/24 06:18:35;;;;;;;;;;;;;;;8.35;57.08;101927.38;5411639;32;35230;-85
2023/01/24 06:21:44;;;;;;;;;;;;;;;8.77;55.80;101923.66;5405574;32;34986;-84
2023/01/24 06:24:46;;;;;;;;;;;;;;;8.77;56.02;101933.28;5392036;32;37302;-82
2023/01/24 06:27:48;;;;;;;;;;;;;;;8.47;56.35;101936.97;5388977;32;34888;-85
2023/01/24 06:30:52;;;;;;;;;;;;;;;8.57;56.18;101941.28;5379759;32;36935;-86
2023/01/24 06:34:13;;;;;;;;;;;;;;;8.72;55.84;101935.06;5412494;32;36407;-84
2023/01/24 06:37:23;;;;;;;;;;;;;;;9.37;53.60;101938.91;5403100;32;34707;-85
2023/01/24 06:40:25;;;;;;;;;;;;;;;9.00;54.52;101938.34;5393188;32;45333;-84
2023/01/24 06:43:27;;;;;;;;;;;;;;;8.28;56.17;101941.41;5393685;32;35099;-81
2023/01/24 06:46:29;;;;;;;;;;;;;;;8.81;56.75;101937.59;5388923;32;34243;-78
2023/01/24 06:49:32;;;;;;;;;;;;;;;8.22;58.74;101946.66;5398052;32;34241;-79
2023/01/24 06:52:34;;;;;;;;;;;;;;;8.76;57.31;101942.00;5361415;32;34390;-79
2023/01/24 06:55:36;;;;;;;;;;;;;;;8.12;59.26;101949.34;5403009;32;34383;-79
2023/01/24 06:58:38;;;;;;;;;;;;;;;8.25;58.77;101941.44;5381556;32;35444;-70
2023/01/24 07:01:41;;;;;;;;;;;;;;;8.01;59.61;101952.88;5396282;32;34310;-70
2023/01/24 07:04:43;;;;;;;;;;;;;;;7.07;62.55;101967.81;5392013;32;35303;-75
2023/01/24 07:07:45;;;;;;;;;;;;;;;7.57;60.96;101952.09;5396610;32;35983;-73
2023/01/24 07:10:47;;;;;;;;;;;;;;;7.68;61.07;101956.47;5395787;32;45299;-74
2023/01/24 07:13:49;;;;;;;;;;;;;;;7.92;60.91;101959.00;5385349;32;34385;-73
2023/01/24 07:16:55;;;;;;;;;;;;;;;7.67;61.21;101973.03;5397316;32;35950;-73
2023/01/24 07:19:57;;;;;;;;;;;;;;;8.60;58.77;101962.22;5391411;32;34211;-70
2023/01/24 07:23:00;;;;;;;;;;;;;;;8.09;60.26;101970.28;5395263;32;35376;-75
2023/01/24 07:26:03;;;;;;;;;;;;;;;7.91;60.43;101969.47;5396406;32;36547;-72
2023/01/24 07:29:07;;;;;;;;;;;;;;;8.51;58.84;101973.63;5395375;32;34234;-71
2023/01/24 07:32:10;;;;;;;;;;;;;;;7.93;60.77;101979.09;5393372;32;36520;-80
2023/01/24 07:35:14;;;;;;;;;;;;;;;7.58;62.38;101977.38;5387889;32;34414;-75
2023/01/24 07:38:16;;;;;;;;;;;;;;;8.21;60.44;101971.12;5404358;32;43194;-71
2023/01/24 07:41:18;;;;;;;;;;;;;;;7.59;61.56;101980.88;5391917;32;34220;-70
2023/01/24 07:44:20;;;;;;;;;;;;;;;8.43;60.30;101978.03;5393319;32;34366;-83
2023/01/24 07:47:23;;;;;;;;;;;;;;;8.41;60.25;101974.56;5409789;32;34205;-77
2023/01/24 07:50:25;;;;;;;;;;;;;;;8.25;61.25;101972.84;5380313;32;36085;-78
2023/01/24 07:53:28;;;;;;;;;;;;;;;8.95;58.68;101983.84;5395132;32;34080;-81
2023/01/24 07:56:30;;;;;;;;;;;;;;;8.17;60.92;101985.97;5399468;32;34152;-76
2023/01/24 07:59:34;;;;;;;;;;;;;;;8.32;60.37;101992.91;5399129;32;35882;-70
2023/01/24 08:02:40;;;;;;;;;;;;;;;8.28;61.05;102002.50;5390497;32;34280;-82
2023/01/24 08:05:43;;;;;;;;;;;;;;;8.77;58.74;101988.34;5383673;32;34324;-73
2023/01/24 08:08:46;;;;;;;;;;;;;;;9.19;57.51;101995.03;5387407;32;35480;-73
2023/01/24 08:11:48;;;;;;;;;;;;;;;8.91;57.90;102000.47;5392650;32;42682;-71
2023/01/24 08:14:50;;;;;;;;;;;;;;;9.00;58.39;102004.78;5404127;32;34280;-70
2023/01/24 08:17:52;;;;;;;;;;;;;;;8.32;59.97;102011.25;5395329;32;34448;-71
2023/01/24 08:20:57;;;;;;;;;;;;;;;8.80;59.58;102011.91;5402954;32;35433;-71
2023/01/24 08:23:59;;;;;;;;;;;;;;;9.37;57.91;102001.88;5395818;32;35774;-73
2023/01/24 08:27:02;;;;;;;;;;;;;;;8.61;59.86;102011.12;5395991;32;35581;-74
2023/01/24 08:30:05;;;;;;;;;;;;;;;9.88;56.27;102004.91;5399482;32;34222;-76
2023/01/24 08:33:08;;;;;;;;;;;;;;;10.15;54.81;102008.97;5401995;32;35645;-82
2023/01/24 08:36:10;;;;;;;;;;;;;;;9.55;56.30;102017.47;5407030;32;34255;-76
2023/01/24 08:39:12;;;;;;;;;;;;;;;9.95;55.23;102010.06;5388533;32;34345;-76
2023/01/24 08:42:29;;;;;;;;;;;;;;;10.22;54.32;102010.63;5395212;32;34208;-80
2023/01/24 08:45:31;;;;;;;;;;;;;;;9.66;56.15;102015.63;5397776;32;34296;-78
2023/01/24 08:48:33;;;;;;;;;;;;;;;10.97;51.81;102005.28;5377231;32;34678;-69
2023/01/24 08:51:35;;;;;;;;;;;;;;;10.97;51.88;102015.81;5387430;32;35530;-75
2023/01/24 08:54:38;;;;;;;;;;;;;;;9.78;55.68;102020.72;5391717;32;33961;-75
2023/01/24 08:57:40;;;;;;;;;;;;;;;9.42;56.95;102021.97;5397411;32;33994;-79
2023/01/24 09:00:42;;;;;;;;;;;;;;;10.04;54.94;102011.72;5390976;32;34647;-81
2023/01/24 09:03:45;;;;;;;;;;;;;;;9.69;55.85;102017.34;5384340;32;37174;-81
2023/01/24 09:06:47;;;;;;;;;;;;;;;9.94;55.04;102024.09;5395478;32;44579;-81
2023/01/24 09:09:51;;;;;;;;;;;;;;;9.50;56.79;102027.13;5392587;32;34481;-69
2023/01/24 09:12:53;;;;;;;;;;;;;;;10.09;55.25;102024.81;5397390;32;34520;-81
2023/01/24 09:15:56;;;;;;;;;;;;;;;10.33;54.01;102024.56;5387545;32;34412;-80
2023/01/24 09:18:58;;;;;;;;;;;;;;;10.74;53.04;102024.00;5404195;32;35395;-77
2023/01/24 09:22:01;;;;;;;;;;;;;;;11.12;51.88;102019.97;5382660;32;36301;-80
2023/01/24 09:25:07;;;;;;;;;;;;;;;10.24;54.60;102022.94;5389338;32;34997;-83
2023/01/24 09:28:09;;;;;;;;;;;;;;;10.91;52.07;102028.19;5391743;32;34573;-85
2023/01/24 09:31:12;;;;;;;;;;;;;;;10.55;52.72;102018.12;5397399;32;33900;-84
2023/01/24 09:34:15;;;;;;;;;;;;;;;9.66;55.76;102023.50;5400382;32;34120;-85
2023/01/24 09:37:17;;;;;;;;;;;;;;;10.80;52.86;102015.19;5391705;32;45309;-82
2023/01/24 09:40:24;;;;;;;;;;;;;;;11.20;50.61;102011.94;5396371;32;34190;-78
2023/01/24 09:43:26;;;;;;;;;;;;;;;11.85;49.14;102002.97;5396997;32;34338;-78
2023/01/24 09:46:30;;;;;;;;;;;;;;;11.78;49.09;102000.41;5397997;32;34241;-78
2023/01/24 09:49:42;;;;;;;;;;;;;;;10.34;52.49;102012.28;5400296;32;34745;-74
2023/01/24 09:52:46;;;;;;;;;;;;;;;10.32;52.43;102011.44;5377194;32;34420;-73
2023/01/24 09:55:48;;;;;;;;;;;;;;;9.80;54.07;102014.62;5397713;32;45330;-76
2023/01/24 09:58:50;;;;;;;;;;;;;;;10.57;51.57;102011.12;5387906;32;34815;-73
2023/01/24 10:01:52;;;;;;;;;;;;;;;10.71;51.82;101999.53;5390586;32;34499;-74
2023/01/24 10:04:54;;;;;;;;;;;;;;;11.01;50.10;102001.72;5391280;32;34481;-72
2023/01/24 10:08:06;;;;;;;;;;;;;;;11.13;49.32;101998.88;5391504;32;35847;-71
2023/01/24 10:11:14;;;;;;;;;;;;;;;10.82;48.97;101997.62;5397166;32;34361;-79
2023/01/24 10:14:34;;;;;;;;;;;;;;;10.89;49.01;102003.69;5375495;32;43622;-81
2023/01/24 10:17:37;;;;;;;;;;;;;;;10.19;50.78;101982.66;5380258;32;34061;-74
2023/01/24 10:20:44;;;;;;;;;;;;;;;10.01;51.03;101986.37;5389913;32;34843;-74
2023/01/24 10:23:48;;;;;;;;;;;;;;;10.17;50.39;101986.16;5398226;32;44864;-72
2023/01/24 10:26:50;;;;;;;;;;;;;;;10.37;50.03;101971.09;5405608;32;34807;-73
2023/01/24 10:29:55;;;;;;;;;;;;;;;11.08;48.23;101971.78;5399349;32;35925;-72
2023/01/24 10:32:58;;;;;;;;;;;;;;;10.69;49.89;101975.91;5404994;32;34158;-85
2023/01/24 10:36:01;;;;;;;;;;;;;;;12.66;45.01;101961.72;5392926;32;35382;-90
2023/01/24 10:39:03;;;;;;;;;;;;;;;14.26;39.52;101963.75;5405998;32;35502;-89
2023/01/24 10:42:16;;;;;;;;;;;;;;;13.71;40.91;101962.66;5409879;32;35241;-87
2023/01/24 10:45:37;;;;;;;;;;;;;;;14.21;38.55;101958.59;5400170;32;44834;-89
2023/01/24 10:48:41;;;;;;;;;;;;;;;14.58;38.28;101950.47;5407693;32;34307;-85
2023/01/24 10:51:44;;;;;;;;;;;;;;;14.86;36.99;101954.88;5384343;32;36097;-91
2023/01/24 10:54:56;;;;;;;;;;;;;;;12.94;41.11;101961.06;5394055;32;36295;-75
2023/01/24 10:57:58;;;;;;;;;;;;;;;13.77;39.94;101950.16;5400567;32;34181;-71
2023/01/24 11:01:05;;;;;;;;;;;;;;;13.85;40.03;101944.69;5395994;32;34554;-67
2023/01/24 11:04:27;;;;;;;;;;;;;;;13.71;40.34;101944.16;5405468;32;34266;-73
2023/01/24 11:07:33;;;;;;;;;;;;;;;13.15;41.63;101946.50;5389077;32;36889;-79
2023/01/24 11:10:36;;;;;;;;;;;;;;;12.20;43.90;101940.78;5394437;32;35467;-74
2023/01/24 11:13:40;;;;;;;;;;;;;;;12.71;42.84;101938.75;5394114;32;34236;-73
2023/01/24 11:16:43;;;;;;;;;;;;;;;11.94;44.19;101930.78;5373928;32;34458;-72
2023/01/24 11:19:45;;;;;;;;;;;;;;;12.60;43.70;101919.66;5387879;32;35548;-81
2023/01/24 11:22:50;;;;;;;;;;;;;;;13.18;42.30;101920.88;5379021;32;44648;-70
2023/01/24 11:25:53;;;;;;;;;;;;;;;12.10;44.60;101916.38;5408729;32;34853;-72
2023/01/24 11:28:59;;;;;;;;;;;;;;;12.32;44.64;101911.50;5393397;32;34223;-80
2023/01/24 11:32:04;;;;;;;;;;;;;;;10.79;47.52;101910.88;5400944;32;34406;-88
2023/01/24 11:35:10;;;;;;;;;;;;;;;12.53;44.04;101896.09;5407386;32;34765;-84
2023/01/24 11:38:25;;;;;;;;;;;;;;;12.78;43.42;101897.25;5399238;32;35414;-81
2023/01/24 11:41:28;;;;;;;;;;;;;;;12.73;43.66;101889.44;5411065;32;34337;-72
2023/01/24 11:44:35;;;;;;;;;;;;;;;12.91;43.10;101895.19;5400807;32;35730;-79
2023/01/24 11:47:39;;;;;;;;;;;;;;;12.77;42.78;101892.88;5383669;32;34290;-78
2023/01/24 11:50:56;;;;;;;;;;;;;;;12.45;44.37;101888.38;5386307;32;35986;-71
2023/01/24 11:54:13;;;;;;;;;;;;;;;12.71;43.67;101882.47;5392655;32;34877;-77
2023/01/24 11:57:18;;;;;;;;;;;;;;;12.76;43.60;101874.47;5404043;32;34659;-74
2023/01/24 12:00:25;;;;;;;;;;;;;;;12.12;44.74;101882.09;5369386;32;44802;-73
2023/01/24 12:04:03;;;;;;;;;;;;;;;12.53;44.26;101886.41;5403483;32;34194;-73
2023/01/24 12:07:20;;;;;;;;;;;;;;;11.31;46.32;101889.81;5377805;32;34513;-77
2023/01/24 12:10:25;;;;;;;;;;;;;;;12.39;44.53;101880.59;5389891;32;46388;-74
2023/01/24 12:13:43;;;;;;;;;;;;;;;12.67;44.09;101880.81;5400835;32;34086;-73
2023/01/24 12:17:04;;;;;;;;;;;;;;;13.15;43.05;101877.87;5393971;32;34550;-74
2023/01/24 12:20:38;;;;;;;;;;;;;;;13.07;43.03;101877.19;5384001;32;35682;-87
2023/01/24 12:23:59;;;;;;;;;;;;;;;13.71;42.37;101867.53;5405542;32;35412;-84
2023/01/24 12:27:03;;;;;;;;;;;;;;;14.93;39.58;101860.25;5405433;32;35484;-83
2023/01/24 12:30:14;;;;;;;;;;;;;;;14.99;38.89;101860.91;5394662;32;34727;-83
2023/01/24 12:33:36;;;;;;;;;;;;;;;13.63;41.45;101867.75;5378363;32;43362;-70
2023/01/24 12:36:44;;;;;;;;;;;;;;;13.59;40.96;101867.87;5381746;32;35803;-74
2023/01/24 12:39:50;;;;;;;;;;;;;;;13.23;41.53;101873.28;5392236;32;43214;-75
2023/01/24 12:42:57;;;;;;;;;;;;;;;13.35;41.79;101867.66;5387185;32;34182;-76
2023/01/24 12:45:59;;;;;;;;;;;;;;;13.31;41.73;101873.06;5393706;32;34699;-78
2023/01/24 12:49:05;;;;;;;;;;;;;;;13.14;41.39;101863.81;5393461;32;34305;-78
2023/01/24 12:52:22;;;;;;;;;;;;;;;12.26;43.83;101868.59;5352380;32;43794;-69
2023/01/24 12:55:32;;;;;;;;;;;;;;;11.91;43.99;101875.50;5399298;32;33423;-76
2023/01/24 12:58:35;;;;;;;;;;;;;;;12.61;42.82;101862.50;5386001;32;34397;-83
2023/01/24 13:01:42;;;;;;;;;;;;;;;13.32;41.24;101873.03;5402735;32;35653;-75
2023/01/24 13:04:55;;;;;;;;;;;;;;;12.60;42.42;101876.59;5380144;32;32870;-83
2023/01/24 13:08:10;;;;;;;;;;;;;;;11.72;45.43;101868.84;5388590;32;35405;-70
2023/01/24 13:11:20;;;;;;;;;;;;;;;12.89;43.22;101873.25;5398190;32;35411;-83
2023/01/24 13:14:31;;;;;;;;;;;;;;;12.85;43.55;101867.19;5402566;32;44523;-82
2023/01/24 13:17:56;;;;;;;;;;;;;;;13.01;43.43;101852.69;5394255;32;34342;-75
2023/01/24 13:21:01;;;;;;;;;;;;;;;12.61;44.55;101859.84;5395284;32;34427;-87
2023/01/24 13:24:06;;;;;;;;;;;;;;;12.39;45.35;101864.78;5389260;32;34367;-80
2023/01/24 13:27:30;;;;;;;;;;;;;;;12.38;45.72;101868.31;5403317;32;35217;-76
2023/01/24 13:30:49;;;;;;;;;;;;;;;11.24;48.11;101874.16;5387010;32;35746;-74
2023/01/24 13:33:52;;;;;;;;;;;;;;;10.28;51.51;101881.84;5394797;32;46435;-81
2023/01/24 13:36:54;;;;;;;;;;;;;;;11.47;49.32;101871.97;5386247;32;34042;-78
2023/01/24 13:40:06;;;;;;;;;;;;;;;12.26;47.69;101865.97;5401324;32;35664;-79
2023/01/24 13:43:26;;;;;;;;;;;;;;;12.37;47.64;101866.59;5408624;32;35727;-93
2023/01/24 13:46:43;;;;;;;;;;;;;;;12.53;47.34;101867.09;5390630;32;35581;-76
2023/01/24 13:49:45;;;;;;;;;;;;;;;11.83;49.15;101865.13;5393269;32;35635;-72
2023/01/24 13:52:51;;;;;;;;;;;;;;;12.18;48.57;101868.78;5378139;32;44432;-77
2023/01/24 13:55:59;;;;;;;;;;;;;;;11.87;49.63;101872.06;5393697;32;34226;-90
2023/01/24 13:59:01;;;;;;;;;;;;;;;12.11;48.71;101875.97;5407370;32;33170;-83
2023/01/24 14:02:22;;;;;;;;;;;;;;;12.28;48.68;101878.19;5394837;32;35043;-73
2023/01/24 14:05:25;;;;;;;;;;;;;;;11.02;51.20;101879.81;5397483;32;44821;-81
2023/01/24 14:08:27;;;;;;;;;;;;;;;11.30;51.70;101877.53;5390634;32;33127;-77
2023/01/24 14:11:35;;;;;;;;;;;;;;;11.87;50.21;101871.19;5366276;32;832039;-79
2023/01/24 14:14:57;;;;;;;;;;;;;;;12.18;49.45;101864.37;5399345;32;35822;-79
2023/01/24 14:17:59;;;;;;;;;;;;;;;12.22;49.05;101869.56;5386559;32;34427;-77
2023/01/24 14:21:01;;;;;;;;;;;;;;;11.65;50.58;101876.00;5393548;32;36293;-77
2023/01/24 14:24:18;;;;;;;;;;;;;;;11.61;50.78;101875.19;5388520;32;34211;-78
2023/01/24 14:27:25;;;;;;;;;;;;;;;12.22;49.09;101875.69;5378695;32;44418;-78
2023/01/24 14:30:31;;;;;;;;;;;;;;;11.56;49.93;101878.81;5387661;32;34084;-76
2023/01/24 14:33:36;;;;;;;;;;;;;;;12.34;48.57;101875.44;5385840;32;34118;-79
2023/01/24 14:36:38;;;;;;;;;;;;;;;11.74;49.42;101873.19;5398740;32;35735;-75
2023/01/24 14:39:41;;;;;;;;;;;;;;;12.08;49.03;101876.00;5386414;32;34424;-75
2023/01/24 14:42:42;;;;;;;;;;;;;;;12.30;48.57;101871.16;5384688;32;36484;-75
2023/01/24 14:45:45;;;;;;;;;;;;;;;11.60;50.16;101875.25;5391475;32;34137;-78
2023/01/24 14:48:47;;;;;;;;;;;;;;;11.95;49.49;101871.91;5388273;32;46214;-76
2023/01/24 14:51:49;;;;;;;;;;;;;;;12.11;48.59;101872.47;5377956;32;35870;-76
2023/01/24 14:54:51;;;;;;;;;;;;;;;12.14;48.69;101877.66;5378921;32;34406;-74
2023/01/24 14:57:53;;;;;;;;;;;;;;;11.98;49.05;101881.50;5400777;32;36119;-78
2023/01/24 15:00:57;;;;;;;;;;;;;;;11.52;50.22;101882.41;5385268;32;33155;-81
2023/01/24 15:03:59;;;;;;;;;;;;;;;11.80;49.64;101883.59;5379177;32;35376;-74
2023/01/24 15:07:07;;;;;;;;;;;;;;;11.58;50.31;101883.12;5388054;32;35654;-78
2023/01/24 15:10:13;;;;;;;;;;;;;;;11.43;50.55;101888.72;5380071;32;34250;-78
2023/01/24 15:13:38;;;;;;;;;;;;;;;11.30;50.90;101893.34;5383420;32;34088;-79
2023/01/24 15:16:53;;;;;;;;;;;;;;;11.46;50.71;101887.78;5375424;32;34968;-77
2023/01/24 15:19:59;;;;;;;;;;;;;;;11.62;50.40;101898.00;5380390;32;46674;-79
2023/01/24 15:23:09;;;;;;;;;;;;;;;11.80;49.90;101894.13;5378073;32;34194;-75
2023/01/24 15:26:24;;;;;;;;;;;;;;;11.58;50.49;101895.44;5380256;32;34998;-76
2023/01/24 15:29:43;;;;;;;;;;;;;;;11.37;51.13;101905.50;5397707;32;35254;-78
2023/01/24 15:32:48;;;;;;;;;;;;;;;11.35;51.26;101909.91;5387208;32;34911;-77
2023/01/24 15:35:50;;;;;;;;;;;;;;;11.00;52.12;101915.78;5387899;32;45167;-79
2023/01/24 15:38:56;;;;;;;;;;;;;;;11.25;51.55;101905.69;5393310;32;35307;-76
2023/01/24 15:45:19;;;;;;;;;;;;;;;10.50;53.81;101909.56;5387715;32;44655;-79
2023/01/24 15:48:22;;;;;;;;;;;;;;;10.34;53.94;101918.53;5385365;32;34822;-77
2023/01/24 15:51:29;;;;;;;;;;;;;;;9.94;55.55;101919.03;5376355;32;34665;-76
2023/01/24 15:54:31;;;;;;;;;;;;;;;10.21;55.04;101925.69;5376679;32;35508;-77
2023/01/24 15:57:34;;;;;;;;;;;;;;;9.82;56.29;101923.56;5381182;32;35449;-80
2023/01/24 16:00:36;;;;;;;;;;;;;;;10.33;55.10;101929.09;5399483;32;35223;-77
2023/01/24 16:03:42;;;;;;;;;;;;;;;10.34;55.33;101926.44;5390906;32;33650;-76
2023/01/24 16:06:44;;;;;;;;;;;;;;;10.41;54.85;101925.44;5402991;32;35514;-76
2023/01/24 16:09:48;;;;;;;;;;;;;;;9.19;59.23;101935.56;5392855;32;36194;-76
2023/01/24 16:12:50;;;;;;;;;;;;;;;9.10;59.23;101947.91;5397191;32;44836;-77
2023/01/24 16:15:52;;;;;;;;;;;;;;;9.72;58.34;101939.44;5397445;32;34645;-78
2023/01/24 16:18:55;;;;;;;;;;;;;;;9.18;60.03;101952.19;5394791;32;34625;-79
2023/01/24 16:21:59;;;;;;;;;;;;;;;8.85;61.18;101949.81;5408286;32;34795;-76
2023/01/24 16:25:01;;;;;;;;;;;;;;;9.03;61.50;101952.31;5394809;32;34341;-77
2023/01/24 16:28:04;;;;;;;;;;;;;;;8.83;61.41;101947.22;5408042;32;35282;-78
2023/01/24 16:31:06;;;;;;;;;;;;;;;9.25;60.56;101941.63;5383043;32;34964;-78
2023/01/24 16:34:08;;;;;;;;;;;;;;;9.31;60.78;101946.81;5400333;32;35343;-80
2023/01/24 16:37:10;;;;;;;;;;;;;;;9.86;58.61;101943.66;5404166;32;34866;-76